Time;durP1;ratioP1;P1;durP2;ratioP2;P2;SDS_P1;SDS_P2;PMS_P1;PMS_P2;Temp;Humidity;BMP_temperature;BMP_pressure;BME280_temperature;BME280_humidity;BME280_pressure;Samples;Min_cycle;Max_cycle;Signal;HPM_P1;HPM_P2
2021/09/19 00:03:05;;;;;;;5.10;3.50;;;;;;;13.71;71.24;98628.05;236723;1195;138419;-64
2021/09/19 00:08:08;;;;;;;5.40;4.90;;;;;;;13.71;71.11;98630.92;236075;1195;138934;-63
2021/09/19 00:13:12;;;;;;;7.30;6.50;;;;;;;13.69;71.06;98637.13;236797;1195;138577;-65
2021/09/19 00:18:16;;;;;;;10.00;7.90;;;;;;;13.67;71.15;98641.61;236517;1195;138403;-66
2021/09/19 00:23:19;;;;;;;13.00;10.50;;;;;;;13.66;71.03;98636.36;236830;1195;139761;-62
2021/09/19 00:28:22;;;;;;;13.60;11.20;;;;;;;13.63;70.69;98635.36;236630;1195;138754;-73
2021/09/19 00:33:26;;;;;;;15.70;11.20;;;;;;;13.55;70.40;98633.33;236424;1195;141923;-64
2021/09/19 00:38:29;;;;;;;16.30;11.40;;;;;;;13.49;70.42;98636.31;235564;1195;140654;-62
2021/09/19 00:43:32;;;;;;;16.50;12.20;;;;;;;13.44;70.28;98632.95;236225;1195;138922;-62
2021/09/19 00:48:35;;;;;;;18.00;13.50;;;;;;;13.39;70.22;98632.64;236196;1195;138738;-61
2021/09/19 00:53:38;;;;;;;16.40;13.00;;;;;;;13.32;70.13;98631.78;236067;1195;138310;-69
2021/09/19 00:58:49;;;;;;;17.30;12.80;;;;;;;13.26;69.80;98632.46;236697;1195;139158;-63
2021/09/19 01:03:52;;;;;;;14.80;11.10;;;;;;;13.16;69.82;98633.88;236400;1195;143685;-66
2021/09/19 01:08:56;;;;;;;15.80;11.90;;;;;;;13.09;69.76;98632.48;235519;1195;139090;-72
2021/09/19 01:14:00;;;;;;;14.40;11.70;;;;;;;13.07;69.98;98639.98;236286;1195;138704;-64
2021/09/19 01:19:20;;;;;;;15.60;12.90;;;;;;;13.03;69.95;98641.99;236227;1195;138640;-67
2021/09/19 01:24:26;;;;;;;15.60;12.10;;;;;;;13.02;70.06;98641.73;236764;1194;138792;-68
2021/09/19 01:29:29;;;;;;;13.80;10.80;;;;;;;12.94;69.78;98643.84;236132;1195;138020;-64
2021/09/19 01:34:32;;;;;;;11.40;8.70;;;;;;;12.91;69.97;98641.24;235579;1196;138551;-66
2021/09/19 01:39:35;;;;;;;13.40;8.10;;;;;;;12.90;70.04;98641.13;236705;1195;138961;-66
2021/09/19 01:44:40;;;;;;;11.50;7.50;;;;;;;12.91;69.96;98643.89;236094;1195;138825;-67
2021/09/19 01:49:50;;;;;;;8.60;6.80;;;;;;;12.93;70.22;98651.75;236059;1195;138358;-64
2021/09/19 01:54:57;;;;;;;8.50;6.40;;;;;;;12.86;69.89;98661.69;235819;1196;138335;-68
2021/09/19 02:00:00;;;;;;;10.40;6.90;;;;;;;12.80;69.83;98663.09;236142;1195;138005;-61
2021/09/19 02:05:07;;;;;;;;;;;;;;;12.75;69.84;98661.28;236220;1195;138629;-63
2021/09/19 02:10:13;;;;;;;7.80;5.70;;;;;;;12.73;69.98;98665.91;236480;1195;125293;-63
2021/09/19 02:15:17;;;;;;;9.10;6.70;;;;;;;12.74;69.94;98665.70;236331;1195;139971;-64
2021/09/19 02:20:20;;;;;;;8.70;5.60;;;;;;;12.74;69.96;98668.66;236112;1195;138146;-65
2021/09/19 02:25:23;;;;;;;7.20;5.20;;;;;;;12.74;69.74;98663.02;235745;1195;138449;-66
2021/09/19 02:30:26;;;;;;;7.20;5.10;;;;;;;12.69;69.58;98661.03;236636;1195;138280;-67
2021/09/19 02:35:29;;;;;;;6.20;4.80;;;;;;;12.59;69.33;98659.01;236560;1194;138733;-62
2021/09/19 02:40:33;;;;;;;7.90;4.60;;;;;;;12.51;69.34;98659.59;236569;1195;139063;-64
2021/09/19 02:45:36;;;;;;;6.60;5.20;;;;;;;12.51;69.27;98662.63;236722;1195;138834;-62
2021/09/19 02:50:40;;;;;;;7.80;5.10;;;;;;;12.45;69.10;98665.89;236644;1195;138624;-64
2021/09/19 02:55:43;;;;;;;8.00;5.20;;;;;;;12.44;69.07;98672.91;236502;1195;138148;-62
2021/09/19 03:00:46;;;;;;;8.10;5.20;;;;;;;12.41;69.15;98671.23;236639;1190;138184;-64
2021/09/19 03:05:49;;;;;;;7.00;5.80;;;;;;;12.36;69.15;98672.63;236618;1195;138291;-65
2021/09/19 03:10:52;;;;;;;8.00;5.40;;;;;;;12.26;68.97;98678.39;236245;1195;138891;-63
2021/09/19 03:15:55;;;;;;;7.60;5.20;;;;;;;12.22;68.85;98680.66;236610;1194;138514;-63
2021/09/19 03:20:58;;;;;;;9.60;5.30;;;;;;;12.23;69.19;98680.60;236291;1195;138460;-67
2021/09/19 03:26:01;;;;;;;10.30;7.20;;;;;;;12.24;69.12;98683.15;236205;1195;138409;-68
2021/09/19 03:31:04;;;;;;;11.00;7.90;;;;;;;12.24;69.16;98684.89;236113;1195;140143;-64
2021/09/19 03:36:07;;;;;;;10.40;8.20;;;;;;;12.20;68.84;98682.39;236011;1196;140819;-63
2021/09/19 03:41:11;;;;;;;12.10;7.80;;;;;;;12.09;68.77;98689.09;236277;1195;138488;-62
2021/09/19 03:46:14;;;;;;;13.40;7.70;;;;;;;11.99;68.75;98689.27;236626;1195;138933;-64
2021/09/19 03:51:17;;;;;;;14.80;7.50;;;;;;;11.98;68.78;98685.29;236135;1195;139061;-65
2021/09/19 03:56:25;;;;;;;11.10;7.10;;;;;;;11.98;68.73;98692.70;235875;1196;139360;-63
2021/09/19 04:01:28;;;;;;;11.60;7.50;;;;;;;11.93;68.99;98696.98;236039;1195;138793;-62
2021/09/19 04:06:31;;;;;;;9.20;7.20;;;;;;;11.87;69.05;98702.83;236089;1195;138493;-63
2021/09/19 04:11:34;;;;;;;9.80;6.60;;;;;;;11.77;68.83;98707.88;236465;1195;138078;-67
2021/09/19 04:16:37;;;;;;;12.50;7.60;;;;;;;11.71;68.80;98709.77;236367;1189;138912;-66
2021/09/19 04:21:40;;;;;;;13.50;8.10;;;;;;;11.74;69.04;98717.57;236527;1195;138848;-67
2021/09/19 04:26:43;;;;;;;12.50;8.50;;;;;;;11.77;69.32;98716.13;236347;1195;138347;-67
2021/09/19 04:31:47;;;;;;;13.00;9.40;;;;;;;11.70;69.00;98718.02;236615;1195;138026;-66
2021/09/19 04:36:50;;;;;;;13.10;9.30;;;;;;;11.63;69.07;98719.39;236460;1195;138288;-63
2021/09/19 04:41:53;;;;;;;13.40;8.80;;;;;;;11.53;69.19;98722.98;236412;1195;138340;-68
2021/09/19 04:46:56;;;;;;;12.80;8.10;;;;;;;11.47;69.48;98730.10;236421;1195;139472;-64
2021/09/19 04:52:00;;;;;;;10.80;8.80;;;;;;;11.46;69.84;98735.86;236570;1195;138610;-64
2021/09/19 04:57:03;;;;;;;12.10;8.80;;;;;;;11.52;69.96;98742.05;236754;1195;138423;-62
2021/09/19 05:02:06;;;;;;;9.70;7.90;;;;;;;11.59;69.99;98747.16;236233;1195;138587;-65
2021/09/19 05:07:09;;;;;;;8.10;5.30;;;;;;;11.65;69.87;98749.15;236245;1195;138282;-61
2021/09/19 05:12:12;;;;;;;8.40;5.70;;;;;;;11.64;70.01;98758.61;235526;1195;138344;-61
2021/09/19 05:17:16;;;;;;;6.90;5.10;;;;;;;11.61;69.95;98760.57;236102;1195;139644;-63
2021/09/19 05:22:19;;;;;;;8.40;6.00;;;;;;;11.62;69.71;98765.33;236127;1194;139387;-62
2021/09/19 05:27:22;;;;;;;8.00;6.10;;;;;;;11.65;69.72;98766.19;236084;1196;138562;-66
2021/09/19 05:32:25;;;;;;;8.80;6.10;;;;;;;11.67;69.54;98773.34;236031;1195;138353;-71
2021/09/19 05:37:28;;;;;;;10.00;6.20;;;;;;;11.70;69.33;98774.52;236515;1195;138125;-68
2021/09/19 05:42:31;;;;;;;9.90;6.10;;;;;;;11.67;69.28;98779.16;236328;1190;138443;-69
2021/09/19 05:47:34;;;;;;;10.00;6.30;;;;;;;11.64;69.14;98784.03;236499;1196;138134;-66
2021/09/19 05:52:38;;;;;;;11.00;7.40;;;;;;;11.56;68.91;98787.02;236260;1195;138621;-69
2021/09/19 05:57:41;;;;;;;9.70;7.90;;;;;;;11.49;68.95;98796.45;236667;1195;138531;-68
2021/09/19 06:02:44;;;;;;;12.20;8.00;;;;;;;11.47;68.96;98804.20;236376;1195;138754;-67
2021/09/19 06:07:48;;;;;;;12.20;8.20;;;;;;;11.49;68.95;98813.51;235818;1195;138890;-70
2021/09/19 06:12:51;;;;;;;12.90;8.30;;;;;;;11.52;68.85;98816.27;236442;1195;139414;-70
2021/09/19 06:17:54;;;;;;;12.30;7.50;;;;;;;11.52;68.90;98817.21;236180;1195;138323;-66
2021/09/19 06:22:57;;;;;;;9.90;7.50;;;;;;;11.48;68.87;98817.98;236076;1195;138300;-62
2021/09/19 06:28:00;;;;;;;78.00;59.50;;;;;;;11.41;68.35;98809.77;236052;1195;139698;-68
2021/09/19 06:33:03;;;;;;;10.20;7.90;;;;;;;11.41;68.66;98805.34;236525;1195;139604;-64
2021/09/19 06:38:07;;;;;;;9.10;6.00;;;;;;;11.44;68.50;98805.84;236764;1194;138345;-62
2021/09/19 06:43:10;;;;;;;8.60;5.10;;;;;;;11.45;68.51;98807.40;236415;1195;139112;-64
2021/09/19 06:48:14;;;;;;;6.30;5.10;;;;;;;11.48;68.41;98812.28;236296;1195;139009;-62
2021/09/19 06:53:17;;;;;;;147.30;99.40;;;;;;;11.51;68.05;98817.08;236368;1194;138228;-63
2021/09/19 06:58:20;;;;;;;27.40;20.90;;;;;;;11.54;68.23;98821.33;236637;1195;139080;-63
2021/09/19 07:03:23;;;;;;;9.30;6.20;;;;;;;11.54;68.10;98818.27;236695;1195;138616;-63
2021/09/19 07:08:27;;;;;;;7.50;5.40;;;;;;;11.56;67.85;98820.47;236238;1195;138568;-67
2021/09/19 07:13:30;;;;;;;8.20;5.00;;;;;;;11.54;68.09;98821.49;236127;1195;138349;-65
2021/09/19 07:18:33;;;;;;;7.90;4.30;;;;;;;11.59;68.06;98827.71;236466;1195;138745;-68
2021/09/19 07:23:36;;;;;;;5.80;4.50;;;;;;;11.70;67.99;98832.49;235627;1195;138205;-67
2021/09/19 07:28:40;;;;;;;5.30;3.50;;;;;;;11.77;68.27;98831.41;236041;1196;139015;-65
2021/09/19 07:33:43;;;;;;;5.10;3.80;;;;;;;11.82;67.65;98832.82;236277;1195;138516;-60
2021/09/19 07:38:48;;;;;;;5.20;4.40;;;;;;;11.86;67.33;98834.96;236625;1195;138593;-62
2021/09/19 07:43:51;;;;;;;5.20;3.60;;;;;;;11.85;67.51;98831.42;236398;1195;138659;-67
2021/09/19 07:48:54;;;;;;;6.00;3.70;;;;;;;11.81;66.94;98833.44;236353;1193;138261;-61
2021/09/19 07:53:57;;;;;;;7.10;3.50;;;;;;;11.76;66.72;98841.48;236280;1195;138069;-63
2021/09/19 07:59:01;;;;;;;6.90;3.60;;;;;;;11.73;66.90;98838.31;236474;1195;138975;-62
2021/09/19 08:04:04;;;;;;;9.50;3.20;;;;;;;11.73;66.96;98842.21;236484;1195;139109;-61
2021/09/19 08:09:07;;;;;;;6.40;3.70;;;;;;;11.79;66.75;98842.30;236588;1195;138137;-61
2021/09/19 08:14:10;;;;;;;7.60;3.60;;;;;;;11.84;66.82;98843.02;236521;1195;138357;-63
2021/09/19 08:19:13;;;;;;;6.40;3.20;;;;;;;11.87;66.53;98845.02;236452;1195;138661;-64
2021/09/19 08:24:16;;;;;;;4.00;3.00;;;;;;;11.92;66.35;98846.64;236543;1195;138568;-62
2021/09/19 08:29:19;;;;;;;4.50;2.90;;;;;;;11.92;66.31;98843.55;236346;1195;138349;-60
2021/09/19 08:34:22;;;;;;;4.40;3.20;;;;;;;11.94;66.09;98842.02;235733;1195;138622;-62
2021/09/19 08:39:26;;;;;;;6.20;3.90;;;;;;;11.99;66.10;98841.42;236712;1195;138037;-59
2021/09/19 08:44:29;;;;;;;4.90;3.40;;;;;;;12.01;65.86;98841.50;236519;1195;137615;-62
2021/09/19 08:49:32;;;;;;;4.90;2.80;;;;;;;12.00;65.89;98844.44;236401;1195;138349;-62
2021/09/19 08:54:35;;;;;;;7.70;3.10;;;;;;;12.03;65.34;98843.30;236689;1195;138882;-63
2021/09/19 08:59:49;;;;;;;5.20;3.00;;;;;;;12.07;65.33;98843.54;236374;1195;138352;-63
2021/09/19 09:04:55;;;;;;;5.10;3.30;;;;;;;12.15;65.38;98844.40;235939;1195;138729;-64
2021/09/19 09:09:58;;;;;;;7.30;3.50;;;;;;;12.25;65.30;98839.26;236225;1195;138006;-65
2021/09/19 09:15:04;;;;;;;9.40;6.70;;;;;;;12.29;65.42;98839.83;236141;1195;140269;-65
2021/09/19 09:20:07;;;;;;;;;;;;;;;12.36;65.30;98841.13;236699;1195;138394;-65
2021/09/19 09:25:16;;;;;;;5.60;3.50;;;;;;;12.47;65.57;98841.04;236721;1195;125715;-62
2021/09/19 09:30:22;;;;;;;5.10;3.00;;;;;;;12.53;65.12;98842.20;236360;1195;138523;-65
2021/09/19 09:35:32;;;;;;;4.90;3.40;;;;;;;12.47;64.43;98841.88;235855;1196;138160;-64
2021/09/19 09:40:35;;;;;;;6.40;3.40;;;;;;;12.45;64.58;98835.62;236364;1195;138792;-61
2021/09/19 09:45:40;;;;;;;5.60;3.30;;;;;;;12.48;64.60;98839.70;236536;1195;138127;-67
2021/09/19 09:50:45;;;;;;;5.50;3.20;;;;;;;12.52;64.68;98842.99;236200;1195;138158;-65
2021/09/19 09:55:49;;;;;;;5.30;3.10;;;;;;;12.52;64.31;98845.85;236069;1195;138382;-63
2021/09/19 10:00:54;;;;;;;8.00;3.60;;;;;;;12.50;64.23;98850.23;236369;1195;138627;-63
2021/09/19 10:05:58;;;;;;;148.50;99.70;;;;;;;12.49;64.31;98855.13;236192;1195;138062;-63
2021/09/19 10:11:22;;;;;;;4.50;3.40;;;;;;;12.55;64.62;98856.63;236326;1195;139314;-65
2021/09/19 10:16:26;;;;;;;7.00;3.20;;;;;;;12.64;64.19;98852.06;236300;1195;138510;-62
2021/09/19 10:21:31;;;;;;;5.00;3.50;;;;;;;12.65;63.98;98853.43;236379;1195;138060;-67
2021/09/19 10:26:50;;;;;;;4.10;3.10;;;;;;;12.67;63.85;98853.64;236204;1196;138256;-69
2021/09/19 10:31:57;;;;;;;5.30;3.40;;;;;;;12.67;63.77;98856.63;236612;1195;138308;-62
2021/09/19 10:37:00;;;;;;;5.90;3.40;;;;;;;12.65;63.66;98856.62;236368;1195;138061;-64
2021/09/19 10:42:31;;;;;;;8.40;3.50;;;;;;;12.62;63.74;98860.41;235851;1196;138462;-63
2021/09/19 10:47:39;;;;;;;4.70;3.70;;;;;;;12.65;63.77;98857.31;235974;1195;138172;-60
2021/09/19 10:52:44;;;;;;;6.40;3.60;;;;;;;12.70;63.70;98860.14;236723;1195;138372;-60
2021/09/19 10:57:53;;;;;;;5.70;3.30;;;;;;;12.75;63.87;98861.73;236266;1195;138538;-66
2021/09/19 11:03:05;;;;;;;7.90;3.60;;;;;;;12.75;63.43;98864.61;236356;1195;138364;-61
2021/09/19 11:08:15;;;;;;;10.80;5.80;;;;;;;12.72;63.58;98866.55;236273;1195;139407;-63
2021/09/19 11:13:19;;;;;;;7.70;3.60;;;;;;;12.75;63.57;98856.42;236374;1195;138813;-60
2021/09/19 11:18:23;;;;;;;5.10;3.90;;;;;;;12.77;63.52;98846.80;236103;1195;138694;-62
2021/09/19 11:23:29;;;;;;;6.00;3.80;;;;;;;12.81;63.38;98846.95;235915;1196;138713;-66
2021/09/19 11:28:33;;;;;;;5.40;3.70;;;;;;;12.85;63.41;98846.83;235896;1196;138818;-64
2021/09/19 11:33:36;;;;;;;7.80;3.90;;;;;;;12.90;63.34;98851.35;236655;1195;138545;-69
2021/09/19 11:38:42;;;;;;;6.50;3.90;;;;;;;12.98;63.24;98852.41;236352;1195;138789;-67
2021/09/19 11:43:50;;;;;;;7.80;3.90;;;;;;;13.02;63.25;98852.06;236092;1195;137843;-62
2021/09/19 11:48:55;;;;;;;6.80;3.50;;;;;;;13.06;63.00;98843.46;236023;1195;138350;-62
2021/09/19 11:53:58;;;;;;;8.90;5.10;;;;;;;13.09;63.19;98843.59;236386;1195;138282;-66
2021/09/19 11:59:01;;;;;;;5.90;3.40;;;;;;;13.11;62.87;98841.61;236028;1190;138746;-64
2021/09/19 12:04:06;;;;;;;8.50;3.60;;;;;;;13.10;62.71;98844.15;236224;1196;138742;-62
2021/09/19 12:09:12;;;;;;;4.60;3.20;;;;;;;13.13;62.84;98844.72;235499;1195;138876;-60
2021/09/19 12:14:26;;;;;;;5.90;3.50;;;;;;;13.16;62.74;98838.91;236165;1195;138855;-62
2021/09/19 12:19:31;;;;;;;6.10;3.50;;;;;;;13.22;62.83;98836.13;236187;1195;138309;-62
2021/09/19 12:24:37;;;;;;;6.40;3.60;;;;;;;13.31;62.90;98832.13;235960;1195;138499;-61
2021/09/19 12:29:41;;;;;;;;;;;;;;;13.40;62.76;98837.31;236062;1195;139191;-61
2021/09/19 12:34:46;;;;;;;5.00;3.30;;;;;;;13.41;62.46;98838.11;236400;1195;124563;-61
2021/09/19 12:40:02;;;;;;;12.80;7.50;;;;;;;13.40;62.70;98839.84;236537;1195;138343;-61
2021/09/19 12:45:10;;;;;;;10.40;6.20;;;;;;;13.43;62.54;98840.08;235946;1195;140200;-63
2021/09/19 12:50:15;;;;;;;5.40;3.60;;;;;;;13.40;62.38;98838.73;235790;1196;138620;-64
2021/09/19 12:55:20;;;;;;;6.90;4.00;;;;;;;13.34;62.23;98838.98;236372;1195;138375;-62
2021/09/19 13:00:24;;;;;;;5.00;3.60;;;;;;;13.29;62.14;98845.65;236426;1195;139116;-66
2021/09/19 13:05:28;;;;;;;8.50;4.30;;;;;;;13.28;62.35;98848.40;235980;1195;138683;-63
2021/09/19 13:10:32;;;;;;;7.50;3.90;;;;;;;13.30;62.25;98845.58;236014;1195;140814;-63
2021/09/19 13:15:36;;;;;;;7.00;4.10;;;;;;;13.32;62.27;98845.42;236442;1195;138872;-63
2021/09/19 13:20:39;;;;;;;7.00;4.10;;;;;;;13.36;62.33;98840.98;235940;1195;140724;-60
2021/09/19 13:25:43;;;;;;;7.50;3.90;;;;;;;13.41;62.30;98841.88;236197;1195;138393;-63
2021/09/19 13:30:49;;;;;;;15.00;11.40;;;;;;;13.42;62.12;98843.05;236314;1195;138726;-63
2021/09/19 13:35:54;;;;;;;63.00;38.10;;;;;;;13.50;62.42;98840.97;235972;1195;139586;-65
2021/09/19 13:41:02;;;;;;;6.20;4.80;;;;;;;13.70;62.60;98836.06;235607;1196;139512;-65
2021/09/19 13:46:09;;;;;;;7.40;4.60;;;;;;;13.88;62.43;98834.79;236099;1195;138864;-64
2021/09/19 13:51:16;;;;;;;6.30;4.20;;;;;;;13.97;62.17;98829.47;236119;1195;138795;-63
2021/09/19 13:56:21;;;;;;;8.10;4.70;;;;;;;13.99;61.78;98832.17;235747;1195;138719;-63
2021/09/19 14:01:27;;;;;;;6.30;4.50;;;;;;;13.96;61.81;98836.86;235663;1196;138559;-62
2021/09/19 14:06:35;;;;;;;6.20;3.80;;;;;;;13.93;61.72;98835.65;236062;1195;139098;-66
2021/09/19 14:11:40;;;;;;;13.40;4.20;;;;;;;13.89;61.74;98840.09;236015;1194;138666;-63
2021/09/19 14:16:43;;;;;;;6.30;4.00;;;;;;;13.81;61.54;98839.63;235340;1196;138822;-63
2021/09/19 14:21:46;;;;;;;6.80;3.90;;;;;;;13.77;61.68;98840.13;235941;1195;138307;-64
2021/09/19 14:26:49;;;;;;;5.90;4.00;;;;;;;13.73;61.60;98845.83;235755;1195;138215;-63
2021/09/19 14:31:54;;;;;;;5.10;4.00;;;;;;;13.69;61.73;98846.47;234260;1195;138083;-60
2021/09/19 14:36:58;;;;;;;7.20;4.20;;;;;;;13.68;61.83;98847.42;235619;1195;138014;-63
2021/09/19 14:42:06;;;;;;;7.30;4.20;;;;;;;13.67;61.88;98851.10;236075;1195;139975;-63
2021/09/19 14:47:11;;;;;;;4.90;3.90;;;;;;;13.66;62.01;98853.64;235932;1195;139272;-62
2021/09/19 14:52:14;;;;;;;6.30;3.70;;;;;;;13.65;62.00;98857.10;235909;1195;138488;-61
2021/09/19 14:57:20;;;;;;;6.40;3.70;;;;;;;13.64;61.89;98852.55;235646;1195;139289;-59
2021/09/19 15:02:44;;;;;;;11.30;4.50;;;;;;;13.64;62.12;98856.53;236086;1195;140078;-61
2021/09/19 15:07:48;;;;;;;12.30;7.80;;;;;;;13.62;62.06;98853.80;236107;1195;138176;-64
2021/09/19 15:12:51;;;;;;;12.10;8.30;;;;;;;13.62;62.52;98859.35;235849;1195;139212;-61
2021/09/19 15:17:54;;;;;;;13.70;8.10;;;;;;;13.63;62.77;98857.80;235948;1195;139061;-61
2021/09/19 15:22:57;;;;;;;15.30;8.90;;;;;;;13.63;62.97;98856.94;236138;1194;138618;-63
2021/09/19 15:28:06;;;;;;;15.40;11.80;;;;;;;13.63;63.16;98854.61;236276;1195;138384;-64
2021/09/19 15:33:10;;;;;;;16.20;10.20;;;;;;;13.72;63.45;98852.06;236134;1195;209956;-63
2021/09/19 15:38:13;;;;;;;14.90;9.50;;;;;;;13.69;63.30;98854.69;236170;1195;138650;-62
2021/09/19 15:43:16;;;;;;;12.90;10.10;;;;;;;13.60;63.08;98857.15;236297;1194;138504;-62
2021/09/19 15:48:19;;;;;;;14.60;10.00;;;;;;;13.52;63.36;98860.46;235520;1196;138417;-60
2021/09/19 15:53:22;;;;;;;16.90;11.70;;;;;;;13.42;63.67;98861.56;235650;1189;139232;-65
2021/09/19 15:58:27;;;;;;;14.40;9.10;;;;;;;13.36;63.50;98864.92;236149;1195;138959;-61
2021/09/19 16:03:36;;;;;;;14.40;9.20;;;;;;;13.29;63.62;98869.30;235911;1195;140471;-61
2021/09/19 16:08:40;;;;;;;15.30;9.40;;;;;;;13.30;63.89;98868.16;235683;1195;139246;-67
2021/09/19 16:13:44;;;;;;;13.00;9.40;;;;;;;13.29;64.05;98869.30;236089;1194;138488;-61
2021/09/19 16:18:47;;;;;;;14.70;9.60;;;;;;;13.29;63.97;98867.39;236099;1188;139266;-60
2021/09/19 16:23:52;;;;;;;15.70;9.40;;;;;;;13.28;64.18;98869.23;236337;1195;138540;-60
2021/09/19 16:28:55;;;;;;;13.90;10.30;;;;;;;13.24;64.24;98867.73;236133;1195;138596;-63
2021/09/19 16:33:58;;;;;;;15.20;10.60;;;;;;;13.19;64.26;98863.81;235424;1195;141062;-60
2021/09/19 16:39:03;;;;;;;15.20;9.20;;;;;;;13.14;64.50;98867.08;235858;1195;139571;-65
2021/09/19 16:44:06;;;;;;;14.80;9.40;;;;;;;13.09;64.68;98865.99;236065;1195;138693;-62
2021/09/19 16:49:09;;;;;;;48.90;32.20;;;;;;;13.13;64.91;98867.85;236023;1195;139411;-63
2021/09/19 16:54:12;;;;;;;14.60;9.60;;;;;;;13.20;65.06;98862.99;236185;1195;139778;-64
2021/09/19 16:59:16;;;;;;;16.90;9.40;;;;;;;13.31;65.16;98867.90;236198;1195;139252;-63
2021/09/19 17:04:19;;;;;;;13.70;9.60;;;;;;;13.26;64.97;98860.66;236246;1194;138617;-61
2021/09/19 17:09:22;;;;;;;13.70;10.10;;;;;;;13.19;64.94;98867.20;235757;1195;160445;-63
2021/09/19 17:14:25;;;;;;;96.50;74.30;;;;;;;13.13;64.79;98872.09;235793;1195;139612;-62
2021/09/19 17:19:28;;;;;;;16.40;10.70;;;;;;;13.12;65.18;98879.33;236098;1195;140172;-65
2021/09/19 17:24:32;;;;;;;16.60;10.40;;;;;;;13.12;65.25;98881.80;236193;1195;140068;-63
2021/09/19 17:29:40;;;;;;;19.10;11.90;;;;;;;13.11;65.20;98884.74;235674;1195;140284;-61
2021/09/19 17:34:43;;;;;;;17.70;11.40;;;;;;;13.10;65.36;98889.77;235696;1195;139056;-63
2021/09/19 17:39:48;;;;;;;17.70;12.70;;;;;;;13.04;65.53;98891.83;235230;1195;138949;-62
2021/09/19 17:44:51;;;;;;;22.10;12.90;;;;;;;13.02;65.50;98896.08;236011;1195;139153;-63
2021/09/19 17:49:54;;;;;;;22.10;12.60;;;;;;;12.98;65.48;98902.08;235849;1194;139599;-61
2021/09/19 17:54:57;;;;;;;18.40;12.20;;;;;;;12.87;65.75;98903.10;235896;1195;140331;-61
2021/09/19 18:00:01;;;;;;;18.90;11.50;;;;;;;12.82;65.77;98901.36;236064;1195;140018;-63
2021/09/19 18:05:07;;;;;;;18.00;12.00;;;;;;;12.80;65.86;98905.38;235889;1195;139531;-62
2021/09/19 18:10:10;;;;;;;16.60;12.00;;;;;;;12.85;65.96;98905.73;235566;1195;138884;-63
2021/09/19 18:15:14;;;;;;;18.20;12.10;;;;;;;12.85;66.11;98906.96;235622;1195;139532;-65
2021/09/19 18:20:17;;;;;;;21.10;13.00;;;;;;;12.84;66.02;98905.66;236135;1195;140060;-62
2021/09/19 18:25:20;;;;;;;17.20;12.10;;;;;;;12.79;66.10;98906.63;236144;1195;140840;-61
2021/09/19 18:30:23;;;;;;;22.00;11.70;;;;;;;12.76;66.11;98899.41;236064;1195;140536;-62
2021/09/19 18:35:26;;;;;;;17.10;10.80;;;;;;;12.76;66.33;98893.21;236083;1195;141737;-64
2021/09/19 18:40:31;;;;;;;17.10;11.70;;;;;;;12.83;66.38;98898.59;236215;1195;140013;-64
2021/09/19 18:45:34;;;;;;;20.40;13.30;;;;;;;12.84;66.28;98901.15;235957;1195;140857;-64
2021/09/19 18:50:37;;;;;;;20.60;13.10;;;;;;;12.84;66.53;98901.13;236111;1195;138721;-61
2021/09/19 18:55:40;;;;;;;22.10;13.10;;;;;;;12.84;66.42;98906.69;236108;1195;139594;-65
2021/09/19 19:00:43;;;;;;;21.20;13.20;;;;;;;12.80;66.40;98906.59;235983;1195;138950;-67
2021/09/19 19:05:47;;;;;;;20.20;12.90;;;;;;;12.79;66.57;98908.13;236042;1195;138989;-62
2021/09/19 19:10:50;;;;;;;19.70;13.50;;;;;;;12.76;66.59;98903.49;235370;1196;139382;-62
2021/09/19 19:15:54;;;;;;;24.30;14.50;;;;;;;12.77;66.67;98901.62;236009;1196;139585;-63
2021/09/19 19:20:57;;;;;;;22.60;14.80;;;;;;;12.78;66.76;98904.45;235897;1195;138612;-62
2021/09/19 19:26:00;;;;;;;21.50;14.00;;;;;;;12.79;66.73;98906.14;236237;1195;138668;-61
2021/09/19 19:31:03;;;;;;;25.00;15.10;;;;;;;12.76;66.57;98915.77;235914;1195;138590;-61
2021/09/19 19:36:08;;;;;;;23.30;14.10;;;;;;;12.72;66.87;98914.34;235674;1196;140038;-64
2021/09/19 19:41:11;;;;;;;20.90;14.00;;;;;;;12.65;66.66;98918.21;235991;1194;138697;-62
2021/09/19 19:46:16;;;;;;;23.20;13.90;;;;;;;12.63;66.82;98919.05;236063;1195;138952;-64
2021/09/19 19:51:19;;;;;;;20.40;13.80;;;;;;;12.63;66.94;98921.02;235958;1195;139993;-62
2021/09/19 19:56:23;;;;;;;21.70;14.80;;;;;;;12.66;67.06;98924.95;235701;1195;140293;-63
2021/09/19 20:01:26;;;;;;;22.60;16.10;;;;;;;12.68;66.94;98921.19;235631;1195;138712;-62
2021/09/19 20:06:29;;;;;;;28.70;16.50;;;;;;;12.70;67.12;98923.03;235928;1195;139974;-63
2021/09/19 20:11:33;;;;;;;27.90;16.50;;;;;;;12.70;67.09;98923.21;236034;1195;139182;-62
2021/09/19 20:16:37;;;;;;;24.90;16.00;;;;;;;12.65;67.13;98926.55;236188;1194;138551;-63
2021/09/19 20:21:40;;;;;;;23.20;14.60;;;;;;;12.68;67.22;98932.23;236122;1195;139091;-62
2021/09/19 20:26:43;;;;;;;23.20;15.50;;;;;;;12.68;67.25;98928.86;235957;1195;139217;-62
2021/09/19 20:31:46;;;;;;;26.60;16.70;;;;;;;12.66;67.38;98927.59;236044;1194;138996;-61
2021/09/19 20:36:50;;;;;;;25.90;15.80;;;;;;;12.69;67.41;98927.90;235919;1195;138980;-61
2021/09/19 20:41:53;;;;;;;25.80;15.90;;;;;;;12.66;67.18;98930.39;236010;1195;139197;-59
2021/09/19 20:46:56;;;;;;;23.10;14.80;;;;;;;12.63;67.16;98927.97;236086;1195;139150;-60
2021/09/19 20:51:59;;;;;;;21.90;14.80;;;;;;;12.57;67.21;98929.66;236209;1195;138660;-61
2021/09/19 20:57:03;;;;;;;22.20;13.20;;;;;;;12.54;67.38;98930.89;236140;1195;140511;-60
2021/09/19 21:02:06;;;;;;;22.70;14.20;;;;;;;12.56;67.38;98935.94;235676;1195;138944;-59
2021/09/19 21:07:09;;;;;;;23.70;14.10;;;;;;;12.60;67.59;98930.68;236008;1195;139278;-62
2021/09/19 21:12:12;;;;;;;20.00;13.40;;;;;;;12.65;67.64;98928.32;236038;1195;140291;-60
2021/09/19 21:17:17;;;;;;;22.80;13.10;;;;;;;12.66;67.41;98924.22;235967;1195;139395;-59
2021/09/19 21:22:20;;;;;;;22.90;14.90;;;;;;;12.66;67.45;98927.95;236282;1195;139399;-60
2021/09/19 21:27:23;;;;;;;21.10;12.30;;;;;;;12.63;67.61;98925.33;235881;1195;139226;-60
2021/09/19 21:32:26;;;;;;;18.00;11.60;;;;;;;12.62;67.27;98927.54;235681;1196;140265;-64
2021/09/19 21:37:30;;;;;;;21.10;11.80;;;;;;;12.62;67.58;98928.41;236068;1196;139038;-62
2021/09/19 21:42:33;;;;;;;20.70;12.10;;;;;;;12.62;67.65;98929.96;236108;1196;139285;-64
2021/09/19 21:47:36;;;;;;;18.90;12.50;;;;;;;12.61;67.53;98930.07;236086;1195;139749;-64
2021/09/19 21:52:40;;;;;;;18.20;11.70;;;;;;;12.65;67.66;98932.83;236257;1195;138725;-62
2021/09/19 21:57:43;;;;;;;18.60;11.80;;;;;;;12.63;67.63;98936.16;236032;1196;138920;-64
2021/09/19 22:02:46;;;;;;;16.20;10.70;;;;;;;12.57;67.44;98939.76;235159;1194;138830;-64
2021/09/19 22:07:54;;;;;;;14.20;9.70;;;;;;;12.54;67.51;98938.38;234187;1195;139455;-65
2021/09/19 22:13:09;;;;;;;18.40;10.20;;;;;;;12.53;67.54;98944.14;234123;1195;139327;-63
2021/09/19 22:18:12;;;;;;;16.30;10.30;;;;;;;12.53;67.55;98945.21;234521;1195;138842;-64
2021/09/19 22:23:16;;;;;;;15.40;9.00;;;;;;;12.55;67.84;98950.23;235882;1195;138135;-65
2021/09/19 22:28:20;;;;;;;21.20;9.20;;;;;;;12.57;67.98;98944.77;236051;1195;138585;-65
2021/09/19 22:33:23;;;;;;;13.20;7.80;;;;;;;12.59;67.94;98946.08;235972;1195;137949;-63
2021/09/19 22:38:27;;;;;;;10.60;6.10;;;;;;;12.61;68.12;98944.67;235892;1195;138788;-66
2021/09/19 22:43:31;;;;;;;9.00;5.60;;;;;;;12.65;67.72;98945.60;235628;1195;139280;-61
2021/09/19 22:48:34;;;;;;;10.30;6.40;;;;;;;12.72;67.95;98943.72;235855;1195;138915;-63
2021/09/19 22:53:37;;;;;;;10.00;6.20;;;;;;;12.75;67.81;98949.55;236057;1195;138533;-65
2021/09/19 22:58:41;;;;;;;12.30;6.30;;;;;;;12.74;67.55;98947.45;236446;1195;139405;-62
2021/09/19 23:03:46;;;;;;;11.20;6.80;;;;;;;12.74;67.49;98941.60;235886;1195;139592;-61
2021/09/19 23:08:49;;;;;;;13.00;6.80;;;;;;;12.69;67.47;98937.11;235720;1195;139675;-65